Air Navigation Services of Czech Republic
Airport: LKNA Updated:  21.01.2019 06:00:06  UTC
 METAR LKNA 21.01. 06:00 ...
METAR LKNA 210600Z 34005KT CAVOK M08/M09 Q1019 NOSIG RMK BLU BLU=
 TAF LKNA 21.01. 05:00 ...
TAF LKNA 210500Z 2106/2206 33004KT CAVOK      BECMG 2110/2112 VRB02KT      TEMPO 2120/2206 4000 BR SCT015=